Time;durP1;ratioP1;P1;durP2;ratioP2;P2;SDS_P1;SDS_P2;PMS_P1;PMS_P2;Temp;Humidity;BMP_temperature;BMP_pressure;BME280_temperature;BME280_humidity;BME280_pressure;Samples;Min_cycle;Max_cycle;Signal;HPM_P1;HPM_P2
2022/07/22 00:00:11;;;;;;;10.73;9.73;;;20.20;99.90;;;;;;5012043;28;20167;-70
2022/07/22 00:02:36;;;;;;;10.53;9.63;;;20.20;99.90;;;;;;5012430;28;20425;-70
2022/07/22 00:05:02;;;;;;;11.00;10.20;;;20.20;99.90;;;;;;5012434;28;20430;-70
2022/07/22 00:07:28;;;;;;;9.23;8.53;;;20.20;99.90;;;;;;5012371;28;20201;-70
2022/07/22 00:09:53;;;;;;;11.10;10.20;;;20.10;99.90;;;;;;5011507;28;20876;-69
2022/07/22 00:12:19;;;;;;;10.90;9.83;;;20.00;99.90;;;;;;5012416;28;20171;-70
2022/07/22 00:14:45;;;;;;;10.63;9.67;;;19.90;99.90;;;;;;5012501;28;20790;-69
2022/07/22 00:17:10;;;;;;;10.90;10.00;;;19.90;99.90;;;;;;5012170;28;20183;-70
2022/07/22 00:19:37;;;;;;;10.03;9.30;;;19.90;99.90;;;;;;5011541;28;20191;-70
2022/07/22 00:22:03;;;;;;;12.00;10.97;;;19.90;99.90;;;;;;5012316;28;20513;-70
2022/07/22 00:24:28;;;;;;;10.67;9.73;;;19.90;99.90;;;;;;5012234;28;20436;-69
2022/07/22 00:26:54;;;;;;;9.97;9.17;;;19.80;99.90;;;;;;5012039;28;20459;-69
2022/07/22 00:29:19;;;;;;;11.77;10.90;;;19.70;99.90;;;;;;5011547;28;20589;-70
2022/07/22 00:31:45;;;;;;;11.17;10.20;;;19.60;99.90;;;;;;5012047;28;20207;-70
2022/07/22 00:34:10;;;;;;;10.73;9.83;;;19.60;99.90;;;;;;5012163;28;20170;-70
2022/07/22 00:36:36;;;;;;;9.13;8.33;;;19.60;99.90;;;;;;5012014;28;20191;-70
2022/07/22 00:39:02;;;;;;;10.87;10.00;;;19.60;99.90;;;;;;5011397;28;20178;-70
2022/07/22 00:41:28;;;;;;;9.87;9.07;;;19.60;99.90;;;;;;5012089;28;20167;-69
2022/07/22 00:44:05;;;;;;;11.30;10.20;;;19.60;99.90;;;;;;5012134;28;20421;-69
2022/07/22 00:46:32;;;;;;;10.70;9.80;;;19.60;99.90;;;;;;5011829;28;20221;-70
2022/07/22 00:48:58;;;;;;;10.73;9.73;;;19.60;99.90;;;;;;5011353;28;20421;-70
2022/07/22 00:51:25;;;;;;;10.97;9.90;;;19.60;99.90;;;;;;5011921;28;20513;-70
2022/07/22 00:53:52;;;;;;;10.07;9.27;;;19.50;99.90;;;;;;5011949;28;20464;-69
2022/07/22 00:56:19;;;;;;;9.60;8.80;;;19.50;99.90;;;;;;5011762;28;20414;-69
2022/07/22 00:58:46;;;;;;;10.73;9.80;;;19.40;99.90;;;;;;5011189;28;20448;-69
2022/07/22 01:01:12;;;;;;;11.03;10.27;;;19.40;99.90;;;;;;5011895;28;20421;-69
2022/07/22 01:03:38;;;;;;;9.47;8.77;;;19.30;99.90;;;;;;5011966;28;20417;-70
2022/07/22 01:06:04;;;;;;;10.30;9.30;;;19.40;99.90;;;;;;5011753;28;20417;-70
2022/07/22 01:08:31;;;;;;;9.43;8.70;;;19.40;99.90;;;;;;5011034;28;20182;-70
2022/07/22 01:11:09;;;;;;;10.47;9.60;;;19.40;99.90;;;;;;5011807;28;20453;-70
2022/07/22 01:13:36;;;;;;;10.57;9.53;;;19.40;99.90;;;;;;5011840;28;20760;-70
2022/07/22 01:16:04;;;;;;;9.20;8.50;;;19.40;99.90;;;;;;5011830;28;20781;-70
2022/07/22 01:18:29;;;;;;;10.47;9.67;;;19.40;99.90;;;;;;5011054;28;20488;-70
2022/07/22 01:20:55;;;;;;;10.17;9.40;;;19.40;99.90;;;;;;5011694;28;20417;-69
2022/07/22 01:23:21;;;;;;;10.17;9.47;;;19.30;99.90;;;;;;4994125;28;20183;-69
2022/07/22 01:25:46;;;;;;;12.57;11.47;;;19.30;99.90;;;;;;5014756;28;20640;-69
2022/07/22 01:28:12;;;;;;;9.10;8.40;;;19.20;99.90;;;;;;5014557;28;20215;-70
2022/07/22 01:30:37;;;;;;;10.70;9.73;;;19.10;99.90;;;;;;5015198;28;20406;-69
2022/07/22 01:33:03;;;;;;;9.70;9.00;;;19.20;99.90;;;;;;5015356;28;20644;-69
2022/07/22 01:35:28;;;;;;;10.13;9.23;;;19.30;99.90;;;;;;5015101;28;20635;-69
2022/07/22 01:37:54;;;;;;;11.80;10.93;;;19.30;99.90;;;;;;5014990;28;20221;-69
2022/07/22 01:40:19;;;;;;;10.00;9.10;;;19.30;99.90;;;;;;5014247;28;20194;-69
2022/07/22 01:42:45;;;;;;;10.83;10.00;;;19.40;99.90;;;;;;5015015;28;20167;-69
2022/07/22 01:45:10;;;;;;;10.43;9.57;;;19.30;99.90;;;;;;5014979;28;20201;-69
2022/07/22 01:47:36;;;;;;;10.77;9.87;;;19.30;99.90;;;;;;5014829;28;20191;-69
2022/07/22 01:50:04;;;;;;;10.70;9.60;;;19.20;99.90;;;;;;5014034;28;20175;-69
2022/07/22 01:52:29;;;;;;;10.90;9.97;;;19.20;99.90;;;;;;5014823;28;20171;-69
2022/07/22 01:54:55;;;;;;;11.60;10.50;;;19.20;99.90;;;;;;5014817;28;20508;-69
2022/07/22 01:57:20;;;;;;;10.90;9.83;;;19.50;99.90;;;;;;5014620;28;20199;-69
2022/07/22 01:59:46;;;;;;;11.23;10.33;;;19.00;99.90;;;;;;5014060;28;20175;-69
2022/07/22 02:02:11;;;;;;;10.43;9.70;;;18.90;99.90;;;;;;5014625;28;20167;-69
2022/07/22 02:04:37;;;;;;;11.03;10.13;;;19.00;99.90;;;;;;5014605;28;20178;-69
2022/07/22 02:07:03;;;;;;;11.13;10.30;;;19.00;99.90;;;;;;5014415;28;20194;-69
2022/07/22 02:09:29;;;;;;;11.20;10.30;;;18.90;99.90;;;;;;5013780;28;20631;-69
2022/07/22 02:11:54;;;;;;;11.50;10.60;;;18.90;99.90;;;;;;5014347;28;20469;-69
2022/07/22 02:14:20;;;;;;;10.97;10.07;;;18.90;99.90;;;;;;5014445;28;20167;-69
2022/07/22 02:16:45;;;;;;;10.10;9.20;;;18.80;99.90;;;;;;5014317;28;20189;-69
2022/07/22 02:19:11;;;;;;;11.30;10.20;;;18.70;99.90;;;;;;4996045;28;20199;-69
2022/07/22 02:21:37;;;;;;;12.00;11.10;;;18.80;99.90;;;;;;5014178;28;20202;-69
2022/07/22 02:24:03;;;;;;;11.03;10.23;;;18.70;99.90;;;;;;5014235;28;20167;-69
2022/07/22 02:26:29;;;;;;;11.83;10.90;;;18.70;99.90;;;;;;5013884;28;20461;-69
2022/07/22 02:28:55;;;;;;;11.17;10.33;;;18.70;99.90;;;;;;5013399;28;20472;-69
2022/07/22 02:31:20;;;;;;;11.70;10.60;;;18.70;99.90;;;;;;5013764;28;20252;-69
2022/07/22 02:33:47;;;;;;;11.37;10.37;;;18.60;99.90;;;;;;5014098;28;20417;-69
2022/07/22 02:36:12;;;;;;;10.50;9.63;;;18.60;99.90;;;;;;5012853;28;20241;-69
2022/07/22 02:38:38;;;;;;;10.20;9.33;;;18.60;99.90;;;;;;5013153;28;20410;-69
2022/07/22 02:41:04;;;;;;;12.53;11.33;;;18.60;99.90;;;;;;5013805;28;20184;-71
2022/07/22 02:43:29;;;;;;;11.40;10.60;;;18.50;99.90;;;;;;5014035;28;20178;-69
2022/07/22 02:45:55;;;;;;;10.80;10.00;;;18.50;99.90;;;;;;5013842;28;20250;-69
2022/07/22 02:48:21;;;;;;;12.60;11.20;;;18.40;99.90;;;;;;5012938;28;20190;-69
2022/07/22 02:50:47;;;;;;;11.70;10.70;;;18.40;99.90;;;;;;5013616;28;20665;-69
2022/07/22 02:53:14;;;;;;;11.83;10.70;;;18.40;99.90;;;;;;5013597;28;20512;-69
2022/07/22 02:55:39;;;;;;;11.93;10.97;;;18.30;99.90;;;;;;5013546;28;20845;-69
2022/07/22 02:58:07;;;;;;;12.40;11.20;;;18.30;99.90;;;;;;5013376;28;20479;-69
2022/07/22 03:00:33;;;;;;;11.87;10.97;;;18.30;99.90;;;;;;5012927;28;20663;-70
2022/07/22 03:02:59;;;;;;;12.03;10.80;;;18.30;99.90;;;;;;4995997;28;20426;-69
2022/07/22 03:05:24;;;;;;;12.60;10.60;;;18.20;99.90;;;;;;5013398;28;20424;-70
2022/07/22 03:07:50;;;;;;;11.30;10.30;;;18.10;99.90;;;;;;5013267;28;20202;-69
2022/07/22 03:10:15;;;;;;;11.60;10.70;;;18.10;99.90;;;;;;5012846;28;20214;-69
2022/07/22 03:12:41;;;;;;;12.33;11.33;;;18.10;99.90;;;;;;5013385;28;20179;-69
2022/07/22 03:15:07;;;;;;;13.50;12.10;;;18.10;99.90;;;;;;4995783;28;20589;-69
2022/07/22 03:17:36;;;;;;;12.93;11.83;;;18.00;99.90;;;;;;5013189;28;20241;-69
2022/07/22 03:20:07;;;;;;;12.83;11.73;;;18.00;99.90;;;;;;5012385;28;20175;-69
2022/07/22 03:22:33;;;;;;;13.57;12.27;;;18.00;99.90;;;;;;5013062;28;20422;-69
2022/07/22 03:24:59;;;;;;;14.37;13.17;;;17.90;99.90;;;;;;4995551;28;20444;-69
2022/07/22 03:27:25;;;;;;;12.50;11.40;;;17.90;99.90;;;;;;5035727;22;20245;-67
2022/07/22 03:29:51;;;;;;;12.43;11.43;;;18.00;99.90;;;;;;5012232;28;20509;-67
2022/07/22 03:32:16;;;;;;;12.27;11.13;;;18.00;99.90;;;;;;5012929;28;20820;-67
2022/07/22 03:34:42;;;;;;;13.27;12.17;;;17.90;99.90;;;;;;5012999;28;20712;-68
2022/07/22 03:37:08;;;;;;;14.27;13.07;;;17.90;99.90;;;;;;5012733;28;20240;-68
2022/07/22 03:39:33;;;;;;;13.17;11.77;;;17.80;99.90;;;;;;5012422;28;20654;-68
2022/07/22 03:41:59;;;;;;;13.30;12.10;;;17.90;99.90;;;;;;5012975;28;20193;-68
2022/07/22 03:44:24;;;;;;;15.50;14.00;;;17.90;99.90;;;;;;5012916;28;20171;-68
2022/07/22 03:46:50;;;;;;;14.03;12.60;;;17.90;99.90;;;;;;4994796;28;20601;-68
2022/07/22 03:49:15;;;;;;;12.73;11.37;;;17.80;99.90;;;;;;5011907;28;20254;-67
2022/07/22 03:51:41;;;;;;;13.33;12.27;;;17.90;99.90;;;;;;5011677;28;20337;-67
2022/07/22 03:54:06;;;;;;;14.03;12.77;;;17.90;99.90;;;;;;5012563;28;20264;-68
2022/07/22 03:56:32;;;;;;;13.90;12.07;;;17.80;99.90;;;;;;5012513;28;20171;-67
2022/07/22 03:58:57;;;;;;;14.93;13.57;;;17.80;99.90;;;;;;5011923;28;20170;-67
2022/07/22 04:01:23;;;;;;;15.30;14.03;;;17.90;99.90;;;;;;5012545;28;20167;-68
2022/07/22 04:03:49;;;;;;;13.53;12.33;;;17.90;99.90;;;;;;5012523;28;20629;-67
2022/07/22 04:06:15;;;;;;;15.37;13.90;;;18.00;99.90;;;;;;5012485;28;20545;-67
2022/07/22 04:08:41;;;;;;;13.90;12.57;;;18.00;99.90;;;;;;5011574;28;20194;-67
2022/07/22 04:11:06;;;;;;;12.63;11.53;;;18.00;99.90;;;;;;5012377;28;20462;-68
2022/07/22 04:13:32;;;;;;;13.47;12.20;;;18.10;99.90;;;;;;5012432;28;20254;-67
2022/07/22 04:15:57;;;;;;;14.37;12.80;;;18.10;99.90;;;;;;5012509;28;20170;-68
2022/07/22 04:18:23;;;;;;;14.53;13.23;;;18.10;99.90;;;;;;5011625;28;20199;-67
2022/07/22 04:20:48;;;;;;;14.67;13.30;;;18.10;99.90;;;;;;5012299;28;20179;-67
2022/07/22 04:23:14;;;;;;;13.57;12.13;;;18.20;99.90;;;;;;5012254;28;20175;-67
2022/07/22 04:25:40;;;;;;;12.30;11.33;;;18.30;99.90;;;;;;5012246;28;20193;-68
2022/07/22 04:28:06;;;;;;;12.53;11.53;;;18.40;99.90;;;;;;5011941;28;20214;-67
2022/07/22 04:30:31;;;;;;;13.83;12.43;;;18.50;99.90;;;;;;5011576;28;20927;-68
2022/07/22 04:32:58;;;;;;;11.87;10.87;;;18.50;99.90;;;;;;4994539;28;20760;-67
2022/07/22 04:35:23;;;;;;;13.47;12.30;;;18.60;99.90;;;;;;5012170;28;20173;-68
2022/07/22 04:37:49;;;;;;;13.30;12.13;;;18.60;99.90;;;;;;5012030;28;20537;-68
2022/07/22 04:40:14;;;;;;;14.33;13.23;;;18.80;99.90;;;;;;5011355;28;20249;-69
2022/07/22 04:42:40;;;;;;;14.17;12.70;;;18.70;99.90;;;;;;5012155;28;20666;-68
2022/07/22 04:45:05;;;;;;;12.63;11.50;;;18.70;99.90;;;;;;5012083;28;20177;-68
2022/07/22 04:47:31;;;;;;;12.00;10.93;;;18.80;99.90;;;;;;5011906;28;20648;-68
2022/07/22 04:49:56;;;;;;;12.60;11.60;;;18.90;99.90;;;;;;5009641;28;20175;-68
2022/07/22 04:52:22;;;;;;;13.03;11.77;;;19.00;99.90;;;;;;5011873;28;20179;-68
2022/07/22 04:54:48;;;;;;;12.30;11.30;;;19.10;99.90;;;;;;5012008;28;20175;-68
2022/07/22 04:57:13;;;;;;;12.40;11.40;;;19.20;99.90;;;;;;5011858;28;20713;-68
2022/07/22 04:59:39;;;;;;;12.97;11.97;;;19.30;99.90;;;;;;5012719;28;20199;-67
2022/07/22 05:02:04;;;;;;;12.30;11.30;;;19.40;99.90;;;;;;5015751;28;20182;-68
2022/07/22 05:04:30;;;;;;;13.53;12.43;;;19.50;99.90;;;;;;5014375;28;20170;-67
2022/07/22 05:06:55;;;;;;;13.53;12.23;;;19.60;99.90;;;;;;5015721;28;20195;-68
2022/07/22 05:09:21;;;;;;;13.90;12.90;;;19.70;99.90;;;;;;5014866;28;20541;-68
2022/07/22 05:11:46;;;;;;;13.23;12.13;;;19.90;99.90;;;;;;5015501;28;20198;-68
2022/07/22 05:14:12;;;;;;;12.77;11.73;;;19.90;99.90;;;;;;5015664;28;20179;-68
2022/07/22 05:16:38;;;;;;;13.57;12.40;;;20.00;99.90;;;;;;5015438;28;20661;-68
2022/07/22 05:19:05;;;;;;;12.87;11.87;;;20.20;99.90;;;;;;5014646;28;20181;-68
2022/07/22 05:21:30;;;;;;;13.77;12.47;;;20.40;99.90;;;;;;5015505;28;20171;-68
2022/07/22 05:23:56;;;;;;;13.67;12.47;;;20.50;99.90;;;;;;5015388;28;20428;-67
2022/07/22 05:26:21;;;;;;;12.63;11.60;;;20.60;99.90;;;;;;5015350;28;20175;-68
2022/07/22 05:28:47;;;;;;;13.77;12.57;;;20.70;99.90;;;;;;5014376;28;20245;-68
2022/07/22 05:31:12;;;;;;;13.57;12.37;;;20.80;99.90;;;;;;5015230;28;20195;-67
2022/07/22 05:33:38;;;;;;;12.20;11.10;;;20.90;99.90;;;;;;5015376;28;20684;-68
2022/07/22 05:36:05;;;;;;;13.57;12.40;;;21.10;99.90;;;;;;5015165;28;20179;-68
2022/07/22 05:38:33;;;;;;;12.27;11.27;;;21.20;99.90;;;;;;5014368;28;20717;-68
2022/07/22 05:40:58;;;;;;;13.77;12.23;;;21.40;99.90;;;;;;5015158;28;20461;-68
2022/07/22 05:43:24;;;;;;;12.27;11.27;;;21.60;99.90;;;;;;5015077;28;20449;-67
2022/07/22 05:45:49;;;;;;;13.83;12.83;;;21.80;99.90;;;;;;5014900;28;20233;-68
2022/07/22 05:48:15;;;;;;;14.20;13.10;;;21.80;99.90;;;;;;5013850;28;20199;-68
2022/07/22 05:50:40;;;;;;;13.17;12.17;;;21.90;99.90;;;;;;5013135;28;20202;-68
2022/07/22 05:53:06;;;;;;;12.37;11.40;;;21.90;99.90;;;;;;5014698;28;20170;-68
2022/07/22 05:55:31;;;;;;;16.27;13.10;;;21.90;99.90;;;;;;5014726;28;20625;-68
2022/07/22 05:57:57;;;;;;;14.40;13.20;;;22.00;99.90;;;;;;5014626;28;20608;-68
2022/07/22 06:00:22;;;;;;;13.70;12.60;;;22.10;99.90;;;;;;5014023;28;20816;-68
2022/07/22 06:02:48;;;;;;;13.70;12.60;;;22.20;99.90;;;;;;5014826;28;20237;-68
2022/07/22 06:05:13;;;;;;;12.33;11.40;;;22.30;99.90;;;;;;5014625;28;20633;-68
2022/07/22 06:07:39;;;;;;;13.43;12.43;;;22.40;99.90;;;;;;5014594;28;20186;-67
2022/07/22 06:10:04;;;;;;;12.00;11.10;;;22.60;99.90;;;;;;5013811;28;20280;-68
2022/07/22 06:12:30;;;;;;;12.47;11.47;;;22.60;99.90;;;;;;5014373;28;20181;-68
2022/07/22 06:14:55;;;;;;;13.03;12.07;;;22.70;99.90;;;;;;5014346;28;20532;-68
2022/07/22 06:17:21;;;;;;;15.10;13.73;;;22.70;99.90;;;;;;5014441;28;20245;-68
2022/07/22 06:19:46;;;;;;;14.50;13.17;;;22.80;99.90;;;;;;5013616;28;20178;-68
2022/07/22 06:22:12;;;;;;;13.67;12.40;;;22.80;99.90;;;;;;5014267;28;20175;-68
2022/07/22 06:24:37;;;;;;;12.77;11.77;;;22.90;99.90;;;;;;5014227;28;20628;-68
2022/07/22 06:27:03;;;;;;;14.37;13.07;;;23.00;99.90;;;;;;5014037;28;20210;-67
2022/07/22 06:29:29;;;;;;;12.70;11.63;;;23.00;99.90;;;;;;5013411;28;20197;-68
2022/07/22 06:31:55;;;;;;;16.40;15.00;;;23.20;99.90;;;;;;5013991;28;20486;-68
2022/07/22 06:34:20;;;;;;;15.23;14.13;;;23.50;99.90;;;;;;5014028;28;20169;-68
2022/07/22 06:36:46;;;;;;;15.27;13.80;;;23.70;99.90;;;;;;5013914;28;20256;-68
2022/07/22 06:39:11;;;;;;;13.20;12.20;;;23.80;99.90;;;;;;5013247;28;20247;-68
2022/07/22 06:41:37;;;;;;;12.97;11.87;;;23.80;99.90;;;;;;5013819;28;20190;-69
2022/07/22 06:44:03;;;;;;;14.07;12.77;;;24.00;99.90;;;;;;5013813;28;20175;-68
2022/07/22 06:46:28;;;;;;;13.90;12.80;;;24.10;99.90;;;;;;5013699;28;20555;-68
2022/07/22 06:48:54;;;;;;;15.20;14.10;;;24.30;99.90;;;;;;5013075;28;20549;-69
2022/07/22 06:51:19;;;;;;;13.97;12.70;;;24.30;99.90;;;;;;5011979;28;20202;-68
2022/07/22 06:53:45;;;;;;;15.70;14.20;;;24.40;99.90;;;;;;5013682;28;20584;-68
2022/07/22 06:56:10;;;;;;;14.53;12.80;;;24.50;99.90;;;;;;4995949;28;20668;-68
2022/07/22 06:58:36;;;;;;;15.27;14.10;;;24.60;99.90;;;;;;5012832;28;20195;-68
2022/07/22 07:01:01;;;;;;;13.00;11.70;;;24.80;99.90;;;;;;5013592;28;20174;-69
2022/07/22 07:03:27;;;;;;;15.40;13.80;;;24.80;99.90;;;;;;5013512;28;20540;-68
2022/07/22 07:05:52;;;;;;;15.93;14.43;;;24.60;99.90;;;;;;5013517;28;20233;-68
2022/07/22 07:08:18;;;;;;;14.70;13.40;;;24.70;99.90;;;;;;5012699;28;20193;-68
2022/07/22 07:10:44;;;;;;;14.43;12.73;;;24.70;99.90;;;;;;5013207;28;20198;-68
2022/07/22 07:13:09;;;;;;;13.20;11.90;;;25.10;99.90;;;;;;5013374;28;20170;-68
2022/07/22 07:15:35;;;;;;;14.33;13.13;;;25.40;99.90;;;;;;5013336;28;20179;-68
2022/07/22 07:18:01;;;;;;;13.33;12.13;;;25.60;99.90;;;;;;5013191;28;20241;-68
2022/07/22 07:20:26;;;;;;;14.87;13.67;;;25.80;99.90;;;;;;5012608;28;20185;-69
2022/07/22 07:22:53;;;;;;;15.80;14.50;;;26.20;99.90;;;;;;5012740;28;20548;-68
2022/07/22 07:25:19;;;;;;;14.13;12.83;;;26.20;99.90;;;;;;5013095;28;20182;-68
2022/07/22 07:27:44;;;;;;;13.50;12.40;;;26.30;99.90;;;;;;5012897;28;20469;-68
2022/07/22 07:30:10;;;;;;;13.87;12.47;;;26.50;99.90;;;;;;5012180;28;20433;-68
2022/07/22 07:32:36;;;;;;;14.30;13.20;;;26.70;99.90;;;;;;5012751;28;20167;-68
2022/07/22 07:35:06;;;;;;;13.73;12.70;;;26.90;99.90;;;;;;5012955;28;20807;-68
2022/07/22 07:37:32;;;;;;;15.63;14.43;;;27.00;99.90;;;;;;5012889;28;20195;-68
2022/07/22 07:39:57;;;;;;;13.57;12.57;;;27.00;99.90;;;;;;5012198;28;20425;-68
2022/07/22 07:42:23;;;;;;;13.53;12.17;;;27.20;99.90;;;;;;5012933;28;20417;-68
2022/07/22 07:44:49;;;;;;;15.07;13.87;;;27.30;99.90;;;;;;5012785;28;20174;-68
2022/07/22 07:47:17;;;;;;;12.30;11.30;;;27.50;99.90;;;;;;5012743;28;20523;-69
2022/07/22 07:49:44;;;;;;;13.60;12.50;;;27.60;99.90;;;;;;5012047;28;20731;-68
2022/07/22 07:52:10;;;;;;;14.00;12.90;;;27.50;99.90;;;;;;4995010;28;20461;-68
2022/07/22 07:54:35;;;;;;;14.77;13.63;;;27.40;99.90;;;;;;5012651;28;20406;-68
2022/07/22 07:57:01;;;;;;;15.10;13.60;;;27.50;99.90;;;;;;5012517;28;20429;-68
2022/07/22 07:59:27;;;;;;;13.87;12.77;;;27.60;99.90;;;;;;5011848;28;20167;-68
2022/07/22 08:01:52;;;;;;;15.10;13.90;;;27.80;99.90;;;;;;5012524;28;20187;-69
2022/07/22 08:04:18;;;;;;;15.20;11.53;;;28.30;99.90;;;;;;5012557;28;20186;-68
2022/07/22 08:06:43;;;;;;;15.70;13.43;;;28.30;99.90;;;;;;5012399;28;20206;-68
2022/07/22 08:09:10;;;;;;;15.77;14.47;;;28.10;99.90;;;;;;5011669;28;20175;-68
2022/07/22 08:11:35;;;;;;;14.57;13.10;;;27.50;99.90;;;;;;5012373;28;20757;-69
2022/07/22 08:14:01;;;;;;;14.40;13.10;;;27.50;99.90;;;;;;5012483;28;20430;-69
2022/07/22 08:16:26;;;;;;;13.50;12.40;;;27.60;99.90;;;;;;5012317;28;20647;-68
2022/07/22 08:18:52;;;;;;;15.27;13.80;;;27.90;99.90;;;;;;5011602;28;20246;-68
2022/07/22 08:21:18;;;;;;;14.67;13.57;;;28.40;99.90;;;;;;5012320;28;20174;-68
2022/07/22 08:23:44;;;;;;;14.40;13.10;;;28.60;99.90;;;;;;5012328;28;20163;-69
2022/07/22 08:26:09;;;;;;;14.17;12.90;;;28.70;99.90;;;;;;5012442;28;20796;-69
2022/07/22 08:28:35;;;;;;;15.37;14.07;;;28.80;99.90;;;;;;5011367;28;20304;-68
2022/07/22 08:31:00;;;;;;;15.40;13.90;;;29.00;99.90;;;;;;5012202;28;20565;-69
2022/07/22 08:33:26;;;;;;;12.50;11.60;;;29.20;99.10;;;;;;5012222;28;20171;-68
2022/07/22 08:35:51;;;;;;;15.13;13.87;;;29.60;99.50;;;;;;5015734;28;20167;-68
2022/07/22 08:38:17;;;;;;;13.07;12.03;;;30.00;98.10;;;;;;5015245;28;20186;-68
2022/07/22 08:40:43;;;;;;;15.33;14.07;;;30.00;97.20;;;;;;5016200;28;20208;-69
2022/07/22 08:43:09;;;;;;;15.37;14.07;;;29.70;96.70;;;;;;5016145;28;20214;-68
2022/07/22 08:45:34;;;;;;;14.23;13.00;;;28.60;97.80;;;;;;5016100;28;20178;-68
2022/07/22 08:48:02;;;;;;;16.70;15.27;;;28.40;98.60;;;;;;5015901;28;20190;-68
2022/07/22 08:50:29;;;;;;;14.60;13.43;;;28.50;98.90;;;;;;5015233;28;20191;-68
2022/07/22 08:52:54;;;;;;;13.77;12.67;;;29.20;98.60;;;;;;5015912;28;20428;-68
2022/07/22 08:55:20;;;;;;;13.07;12.00;;;29.90;97.10;;;;;;5015957;28;20457;-68
2022/07/22 08:57:47;;;;;;;12.60;11.70;;;30.10;96.50;;;;;;5015034;28;20652;-68
2022/07/22 09:00:16;;;;;;;13.13;12.03;;;30.10;95.90;;;;;;5015242;28;20630;-68
2022/07/22 09:02:42;;;;;;;12.57;11.50;;;29.90;95.60;;;;;;5015812;28;20453;-68
2022/07/22 09:05:11;;;;;;;13.13;12.03;;;30.10;96.20;;;;;;5015759;28;20414;-69
2022/07/22 09:07:39;;;;;;;15.87;14.47;;;30.50;96.00;;;;;;5015605;28;20438;-69
2022/07/22 09:10:10;;;;;;;14.33;13.13;;;31.00;95.30;;;;;;5014874;28;20421;-68
2022/07/22 09:12:58;;;;;;;13.17;11.90;;;31.10;94.50;;;;;;5015465;28;20429;-68
2022/07/22 09:15:30;;;;;;;11.13;10.30;;;31.30;92.60;;;;;;5015559;28;20410;-68
2022/07/22 09:17:56;;;;;;;12.37;11.40;;;31.70;92.10;;;;;;5015142;28;20452;-69
2022/07/22 09:20:23;;;;;;;11.90;11.10;;;32.00;91.10;;;;;;5014776;28;20440;-68
2022/07/22 09:22:49;;;;;;;13.20;12.10;;;31.90;91.00;;;;;;5015403;28;20869;-68
2022/07/22 09:25:26;;;;;;;11.53;10.67;;;31.60;90.00;;;;;;5015342;28;20418;-68
2022/07/22 09:27:54;;;;;;;12.47;11.50;;;30.90;90.30;;;;;;5015533;28;20531;-68
2022/07/22 09:30:23;;;;;;;12.23;11.17;;;30.80;90.90;;;;;;5014455;28;20417;-69
2022/07/22 09:32:49;;;;;;;12.70;11.47;;;31.20;90.10;;;;;;5015139;28;20425;-69
2022/07/22 09:35:16;;;;;;;12.53;11.43;;;31.60;90.10;;;;;;5015201;28;20425;-69
2022/07/22 09:37:57;;;;;;;11.97;11.07;;;31.60;89.20;;;;;;5014979;28;20496;-68
2022/07/22 09:40:25;;;;;;;11.37;10.47;;;31.70;88.50;;;;;;5014423;28;20409;-68
2022/07/22 09:42:53;;;;;;;10.20;9.50;;;32.20;86.00;;;;;;5014879;28;20463;-68
2022/07/22 09:45:21;;;;;;;10.63;9.93;;;32.70;82.90;;;;;;4996931;28;20495;-68
2022/07/22 09:47:48;;;;;;;11.17;10.27;;;33.00;80.50;;;;;;5014836;28;20442;-68
2022/07/22 09:50:20;;;;;;;11.30;10.50;;;33.60;79.80;;;;;;5014093;28;20798;-68
2022/07/22 09:52:47;;;;;;;12.00;11.10;;;33.90;78.50;;;;;;5014863;28;20422;-69
2022/07/22 09:55:18;;;;;;;11.23;10.10;;;34.30;78.20;;;;;;5014808;28;20476;-68
2022/07/22 09:57:44;;;;;;;9.83;9.23;;;34.50;76.50;;;;;;5014613;28;20441;-69
2022/07/22 10:00:10;;;;;;;11.17;10.40;;;35.10;74.00;;;;;;5014090;28;20414;-70
2022/07/22 10:02:48;;;;;;;8.80;8.30;;;35.40;71.60;;;;;;5014687;28;20177;-68
2022/07/22 10:05:16;;;;;;;9.83;9.13;;;35.20;69.90;;;;;;5014695;28;20449;-70
2022/07/22 10:07:43;;;;;;;9.80;8.90;;;35.20;69.10;;;;;;5014554;28;20869;-68
2022/07/22 10:10:12;;;;;;;9.43;8.63;;;35.60;68.50;;;;;;5013774;28;20421;-68
2022/07/22 10:12:38;;;;;;;11.53;10.67;;;35.80;67.10;;;;;;5014527;28;20422;-69
2022/07/22 10:15:07;;;;;;;10.33;9.57;;;35.60;66.30;;;;;;4996866;28;20465;-69
2022/07/22 10:17:35;;;;;;;10.80;9.90;;;35.80;66.10;;;;;;5014276;28;20442;-67
2022/07/22 10:20:01;;;;;;;9.50;8.90;;;36.20;64.10;;;;;;5013723;28;20422;-66
2022/07/22 10:22:38;;;;;;;11.10;10.27;;;37.40;62.60;;;;;;5014305;28;20952;-67
2022/07/22 10:25:05;;;;;;;9.70;9.20;;;37.50;62.10;;;;;;5014269;28;20198;-65
2022/07/22 10:27:44;;;;;;;9.13;8.50;;;37.80;61.20;;;;;;4996437;28;20461;-66
2022/07/22 10:30:10;;;;;;;10.30;9.40;;;38.00;59.00;;;;;;5013396;28;20521;-66
2022/07/22 10:32:36;;;;;;;9.50;8.80;;;37.70;59.10;;;;;;5014110;28;20469;-66
2022/07/22 10:35:03;;;;;;;8.13;7.63;;;37.50;57.90;;;;;;5014036;28;20859;-66
2022/07/22 10:37:34;;;;;;;10.00;9.20;;;38.00;57.80;;;;;;5014026;28;20572;-67
2022/07/22 10:40:15;;;;;;;10.87;10.10;;;39.20;54.80;;;;;;5013282;28;20900;-66
2022/07/22 10:43:00;;;;;;;9.70;9.00;;;39.40;55.20;;;;;;5013929;28;20426;-66
2022/07/22 10:45:27;;;;;;;10.43;9.63;;;39.10;54.70;;;;;;5013840;28;21010;-67
2022/07/22 10:47:58;;;;;;;9.03;8.30;;;39.50;54.20;;;;;;5013765;28;20521;-66
2022/07/22 10:50:36;;;;;;;10.20;9.50;;;40.10;52.90;;;;;;5012942;28;20437;-67
2022/07/22 10:53:02;;;;;;;9.57;8.90;;;40.00;52.20;;;;;;5013772;28;20425;-67
2022/07/22 10:55:28;;;;;;;9.27;8.67;;;40.70;52.70;;;;;;5013623;28;20518;-67
2022/07/22 10:57:54;;;;;;;10.10;9.40;;;39.00;52.50;;;;;;5012678;28;20521;-67
2022/07/22 11:00:19;;;;;;;10.20;9.60;;;39.50;52.80;;;;;;5013170;28;20175;-66
2022/07/22 11:02:45;;;;;;;9.63;9.00;;;41.10;51.30;;;;;;5013868;28;20550;-67
2022/07/22 11:05:11;;;;;;;9.90;9.20;;;41.90;47.20;;;;;;5013708;28;20178;-67
2022/07/22 11:07:44;;;;;;;8.63;8.13;;;42.30;47.40;;;;;;5013391;28;20199;-66
2022/07/22 11:10:12;;;;;;;9.40;8.60;;;42.40;47.00;;;;;;5012956;28;20522;-66
2022/07/22 11:12:38;;;;;;;9.17;8.57;;;41.90;42.90;;;;;;5013250;28;20556;-68
2022/07/22 11:15:07;;;;;;;8.57;7.97;;;42.60;42.00;;;;;;5013308;28;20834;-67
2022/07/22 11:17:36;;;;;;;8.50;8.07;;;43.00;41.00;;;;;;5013211;28;20434;-65
2022/07/22 11:20:10;;;;;;;8.60;8.00;;;43.20;40.30;;;;;;5012629;28;20409;-67
2022/07/22 11:22:37;;;;;;;9.57;8.97;;;42.80;40.00;;;;;;5013321;28;20425;-67
2022/07/22 11:25:06;;;;;;;8.50;8.00;;;40.90;44.70;;;;;;5013107;28;20410;-67
2022/07/22 11:27:31;;;;;;;9.13;8.53;;;40.20;45.70;;;;;;5012984;28;20839;-67
2022/07/22 11:29:57;;;;;;;9.07;8.47;;;40.10;45.90;;;;;;5012612;28;20413;-66
2022/07/22 11:32:25;;;;;;;9.60;9.00;;;40.60;45.80;;;;;;5013047;28;20205;-66
2022/07/22 11:34:51;;;;;;;9.93;9.23;;;42.40;42.60;;;;;;5013025;28;20217;-65
2022/07/22 11:37:18;;;;;;;9.23;8.43;;;42.30;43.00;;;;;;5012855;28;20906;-66
2022/07/22 11:39:44;;;;;;;8.60;8.10;;;41.50;44.10;;;;;;5012213;28;20453;-67
2022/07/22 11:42:10;;;;;;;9.13;8.53;;;43.00;42.40;;;;;;5012899;28;20449;-68
2022/07/22 11:44:38;;;;;;;8.87;8.17;;;42.10;40.70;;;;;;5012928;28;20201;-67
2022/07/22 11:47:05;;;;;;;9.70;9.07;;;42.60;42.60;;;;;;5012843;28;20569;-68
2022/07/22 11:49:33;;;;;;;9.70;9.10;;;42.50;42.00;;;;;;5012131;28;20508;-68
2022/07/22 11:52:00;;;;;;;9.67;8.87;;;42.40;42.40;;;;;;5012668;28;20462;-67
2022/07/22 11:54:26;;;;;;;8.83;8.23;;;40.50;42.10;;;;;;5012991;28;20422;-68
2022/07/22 11:56:52;;;;;;;8.67;8.07;;;40.80;43.70;;;;;;5012517;28;20438;-66
2022/07/22 11:59:18;;;;;;;8.90;8.40;;;41.80;41.30;;;;;;5012161;28;20500;-68
2022/07/22 12:01:46;;;;;;;9.63;9.13;;;41.80;42.70;;;;;;5012622;28;20178;-68
2022/07/22 12:04:16;;;;;;;8.57;7.97;;;42.40;42.30;;;;;;5012624;28;20424;-68
2022/07/22 12:06:43;;;;;;;9.30;8.70;;;42.70;41.60;;;;;;5012488;28;20829;-67
2022/07/22 12:09:15;;;;;;;8.60;8.10;;;44.30;40.10;;;;;;5011529;28;20758;-68
2022/07/22 12:11:43;;;;;;;8.43;7.93;;;44.80;37.00;;;;;;5012324;28;20572;-67
2022/07/22 12:14:21;;;;;;;8.90;8.40;;;42.80;39.20;;;;;;5012381;28;20414;-68
2022/07/22 12:17:00;;;;;;;8.50;7.83;;;42.00;39.30;;;;;;5012383;28;20931;-68
2022/07/22 12:19:31;;;;;;;9.00;8.40;;;42.70;38.80;;;;;;5011618;28;20418;-67
2022/07/22 12:22:01;;;;;;;9.27;8.60;;;42.00;39.90;;;;;;5012375;28;20517;-68
2022/07/22 12:24:34;;;;;;;9.53;8.83;;;42.60;41.00;;;;;;5012294;28;20501;-67
2022/07/22 12:27:08;;;;;;;8.80;8.30;;;43.00;39.30;;;;;;5012073;28;20462;-68
2022/07/22 12:29:36;;;;;;;9.33;8.63;;;43.60;40.40;;;;;;5011446;28;20422;-67